createdAt,value
2018-07-20T00:02:25.968Z,99.90
2018-07-20T00:05:00.246Z,99.90
2018-07-20T00:07:35.658Z,99.90
2018-07-20T00:10:10.019Z,99.90
2018-07-20T00:12:44.223Z,99.90
2018-07-20T00:15:18.538Z,99.90
2018-07-20T00:17:53.800Z,99.90
2018-07-20T00:20:28.048Z,99.90
2018-07-20T00:23:02.817Z,99.90
2018-07-20T00:28:10.800Z,99.90
2018-07-20T00:30:46.559Z,99.90
2018-07-20T00:33:21.811Z,99.90
2018-07-20T00:35:57.018Z,99.90
2018-07-20T00:41:05.519Z,99.90
2018-07-20T00:43:39.748Z,99.90
2018-07-20T00:46:14.579Z,99.90
2018-07-20T00:48:48.786Z,99.90
2018-07-20T00:51:23.581Z,99.90
2018-07-20T00:53:58.958Z,99.90
2018-07-20T00:56:33.207Z,99.90
2018-07-20T00:59:07.413Z,99.90
2018-07-20T01:01:41.660Z,99.90
2018-07-20T01:04:16.921Z,99.90
2018-07-20T01:06:51.152Z,99.90
2018-07-20T01:09:25.351Z,99.90
2018-07-20T01:12:00.151Z,99.90
2018-07-20T01:14:34.918Z,99.90
2018-07-20T01:17:09.143Z,99.90
2018-07-20T01:19:43.929Z,99.90
2018-07-20T01:22:19.276Z,99.90
2018-07-20T01:24:53.624Z,99.90
2018-07-20T01:27:27.805Z,99.90
2018-07-20T01:30:02.119Z,99.90
2018-07-20T01:32:37.362Z,99.90
2018-07-20T01:35:11.616Z,99.90
2018-07-20T01:42:55.306Z,99.90
2018-07-20T01:45:29.527Z,99.90
2018-07-20T01:48:04.034Z,99.90
2018-07-20T01:50:38.378Z,99.90
2018-07-20T01:53:12.848Z,99.90
2018-07-20T01:55:48.491Z,99.90
2018-07-20T01:58:23.703Z,99.90
2018-07-20T02:00:57.931Z,99.90
2018-07-20T02:03:32.139Z,99.90
2018-07-20T02:06:06.662Z,99.90
2018-07-20T02:08:40.887Z,99.90
2018-07-20T02:11:15.113Z,99.90
2018-07-20T02:13:50.298Z,99.90
2018-07-20T02:16:24.541Z,99.90
2018-07-20T02:18:58.783Z,99.90
2018-07-20T02:24:07.080Z,99.90
2018-07-20T02:26:41.332Z,99.90
2018-07-20T02:31:49.316Z,99.90
2018-07-20T02:34:24.530Z,99.90
2018-07-20T02:37:01.906Z,99.90
2018-07-20T02:39:36.119Z,99.90
2018-07-20T02:42:10.378Z,99.90
2018-07-20T02:44:45.626Z,99.90
2018-07-20T02:47:20.824Z,99.90
2018-07-20T02:49:56.101Z,99.90
2018-07-20T02:52:30.323Z,99.90
2018-07-20T02:55:04.925Z,99.90
2018-07-20T02:57:39.100Z,99.90
2018-07-20T03:00:14.349Z,99.90
2018-07-20T03:02:48.576Z,99.90
2018-07-20T03:05:23.772Z,99.90
2018-07-20T03:07:59.104Z,99.90
2018-07-20T03:10:33.345Z,99.90
2018-07-20T03:13:07.985Z,99.90
2018-07-20T03:15:42.196Z,99.90
2018-07-20T03:18:16.425Z,99.90
2018-07-20T03:20:51.664Z,99.90
2018-07-20T03:23:25.868Z,99.90
2018-07-20T03:26:00.112Z,99.90
2018-07-20T03:28:34.315Z,99.90
2018-07-20T03:31:09.561Z,99.90
2018-07-20T03:33:43.799Z,99.90
2018-07-20T03:36:18.015Z,99.90
2018-07-20T03:38:55.582Z,99.90
2018-07-20T03:41:32.364Z,99.90
2018-07-20T03:44:07.901Z,99.90
2018-07-20T03:46:42.682Z,99.90
2018-07-20T03:49:17.474Z,99.90
2018-07-20T03:51:52.661Z,99.90
2018-07-20T03:57:01.723Z,99.90
2018-07-20T03:59:36.484Z,99.90
2018-07-20T04:02:11.344Z,99.90
2018-07-20T04:04:46.139Z,99.90
2018-07-20T04:07:20.931Z,99.90
2018-07-20T04:09:56.710Z,99.20
2018-07-20T04:12:31.838Z,97.80
2018-07-20T04:15:06.674Z,95.80
2018-07-20T04:17:46.144Z,95.70
2018-07-20T04:20:20.928Z,97.20
2018-07-20T04:22:56.738Z,99.90
2018-07-20T04:25:32.563Z,99.90
2018-07-20T04:28:07.312Z,99.90
2018-07-20T04:30:42.120Z,98.20
2018-07-20T04:33:16.916Z,94.10
2018-07-20T04:35:52.758Z,91.40
2018-07-20T04:38:27.542Z,83.70
2018-07-20T04:41:02.286Z,78.80
2018-07-20T04:46:12.356Z,71.20
2018-07-20T04:48:46.815Z,67.40
2018-07-20T04:51:21.301Z,67.00
2018-07-20T04:53:56.776Z,65.50
2018-07-20T04:56:31.278Z,64.30
2018-07-20T04:59:05.805Z,64.90
2018-07-20T05:01:40.764Z,64.50
2018-07-20T05:04:15.218Z,64.20
2018-07-20T05:06:49.667Z,62.30
2018-07-20T05:09:24.127Z,60.40
2018-07-20T05:11:58.628Z,59.40
2018-07-20T05:14:33.102Z,59.50
2018-07-20T05:17:07.619Z,63.00
2018-07-20T05:19:43.136Z,65.60
2018-07-20T05:22:17.624Z,69.70
2018-07-20T05:24:52.084Z,73.10
2018-07-20T05:27:26.579Z,73.30
2018-07-20T05:30:01.064Z,72.60
2018-07-20T05:32:35.577Z,74.90
2018-07-20T05:35:11.313Z,76.90
2018-07-20T05:37:45.800Z,77.60
2018-07-20T05:40:20.331Z,79.00
2018-07-20T05:42:54.830Z,78.20
2018-07-20T05:45:30.400Z,77.00
2018-07-20T05:48:06.240Z,76.10
2018-07-20T05:50:40.793Z,73.80
2018-07-20T05:53:15.309Z,72.30
2018-07-20T05:58:26.181Z,66.70
2018-07-20T06:01:01.977Z,68.60
2018-07-20T06:03:36.775Z,71.90
2018-07-20T06:06:11.551Z,76.10
2018-07-20T06:08:46.323Z,83.30
2018-07-20T06:11:21.271Z,88.70
2018-07-20T06:13:56.036Z,89.00
2018-07-20T06:16:30.815Z,90.40
2018-07-20T06:19:07.282Z,89.90
2018-07-20T06:21:42.034Z,88.00
2018-07-20T06:24:18.853Z,87.80
2018-07-20T06:26:53.688Z,87.40
2018-07-20T06:29:29.756Z,84.50
2018-07-20T06:32:04.659Z,77.30
2018-07-20T06:34:39.417Z,70.10
2018-07-20T06:37:14.186Z,70.70
2018-07-20T06:39:49.998Z,69.30
2018-07-20T06:44:58.684Z,61.10
2018-07-20T06:47:33.189Z,63.00
2018-07-20T06:50:12.978Z,63.20
2018-07-20T06:52:48.785Z,64.00
2018-07-20T06:55:23.557Z,67.00
2018-07-20T06:57:58.315Z,69.60
2018-07-20T07:03:09.300Z,64.40
2018-07-20T07:05:44.098Z,63.10
2018-07-20T07:08:19.922Z,62.50
2018-07-20T07:10:54.694Z,62.40
2018-07-20T07:13:29.456Z,64.90
2018-07-20T07:16:04.204Z,68.60
2018-07-20T07:18:38.984Z,71.40
2018-07-20T07:21:13.770Z,74.60
2018-07-20T07:23:48.510Z,79.90
2018-07-20T07:26:23.286Z,81.20
2018-07-20T07:28:58.052Z,76.60
2018-07-20T07:31:32.824Z,74.40
2018-07-20T07:36:41.960Z,72.40
2018-07-20T07:39:17.790Z,71.70
2018-07-20T07:41:52.963Z,73.70
2018-07-20T07:47:03.306Z,71.30
2018-07-20T07:49:38.123Z,69.10
2018-07-20T07:52:12.932Z,69.90
2018-07-20T07:54:47.732Z,70.20
2018-07-20T07:57:22.664Z,65.10
2018-07-20T07:59:57.413Z,63.70
2018-07-20T08:02:32.191Z,63.80
2018-07-20T08:05:06.962Z,60.80
2018-07-20T08:07:42.101Z,58.00
2018-07-20T08:10:17.899Z,54.60
2018-07-20T08:12:53.665Z,55.30
2018-07-20T08:18:04.496Z,53.10
2018-07-20T08:20:38.990Z,51.30
2018-07-20T08:23:13.769Z,49.30
2018-07-20T08:25:48.581Z,47.00
2018-07-20T08:28:23.345Z,46.80
2018-07-20T08:30:57.865Z,43.80
2018-07-20T08:33:32.692Z,43.40
2018-07-20T08:38:42.472Z,44.50
2018-07-20T08:41:17.331Z,42.00
2018-07-20T08:43:52.243Z,41.40
2018-07-20T08:46:27.805Z,41.20
2018-07-20T08:49:02.483Z,41.60
2018-07-20T08:51:37.028Z,43.00
2018-07-20T08:54:11.543Z,42.10
2018-07-20T08:56:46.196Z,41.30
2018-07-20T08:59:20.748Z,42.20
2018-07-20T09:01:55.535Z,41.60
2018-07-20T09:04:31.273Z,42.40
2018-07-20T09:07:05.730Z,40.40
2018-07-20T09:09:41.248Z,42.30
2018-07-20T09:12:15.744Z,41.40
2018-07-20T09:14:50.256Z,40.70
2018-07-20T09:17:25.764Z,40.70
2018-07-20T09:20:00.257Z,41.50
2018-07-20T09:22:34.735Z,41.40
2018-07-20T09:25:10.240Z,40.50
2018-07-20T09:27:44.696Z,40.70
2018-07-20T09:30:19.266Z,40.60
2018-07-20T09:32:53.770Z,41.20
2018-07-20T09:35:28.249Z,41.70
2018-07-20T09:40:39.809Z,41.40
2018-07-20T09:43:14.471Z,43.00
2018-07-20T09:45:48.938Z,43.00
2018-07-20T09:48:23.416Z,42.10
2018-07-20T09:53:31.960Z,43.30
2018-07-20T09:56:06.549Z,42.50
2018-07-20T09:58:41.063Z,42.60
2018-07-20T10:01:15.528Z,42.60
2018-07-20T10:03:50.063Z,42.60
2018-07-20T10:06:24.595Z,42.30
2018-07-20T10:08:59.076Z,42.80
2018-07-20T10:14:09.083Z,41.20
2018-07-20T10:16:43.868Z,42.10
2018-07-20T10:24:44.632Z,41.90
2018-07-20T10:32:27.726Z,42.70
2018-07-20T10:35:02.505Z,41.30
2018-07-20T10:37:38.316Z,42.10
2018-07-20T10:40:13.168Z,42.50
2018-07-20T10:42:48.955Z,43.50
2018-07-20T10:45:24.860Z,42.70
2018-07-20T10:47:59.686Z,43.50
2018-07-20T10:50:34.463Z,42.50
2018-07-20T10:55:43.528Z,43.70
2018-07-20T10:58:18.283Z,42.80
2018-07-20T11:00:53.057Z,42.30
2018-07-20T11:03:27.836Z,43.60
2018-07-20T11:06:03.621Z,43.50
2018-07-20T11:08:38.395Z,44.70
2018-07-20T11:11:13.297Z,45.20
2018-07-20T11:13:48.163Z,45.40
2018-07-20T11:16:30.892Z,46.10
2018-07-20T11:21:41.849Z,45.60
2018-07-20T11:24:16.649Z,45.60
2018-07-20T11:26:51.515Z,45.60
2018-07-20T11:29:26.304Z,45.50
2018-07-20T11:32:02.121Z,45.90
2018-07-20T11:34:36.995Z,46.40
2018-07-20T11:37:11.804Z,47.10
2018-07-20T11:39:46.592Z,46.90
2018-07-20T11:42:22.403Z,46.40
2018-07-20T11:48:09.396Z,46.60
2018-07-20T11:50:44.296Z,46.00
2018-07-20T11:53:20.102Z,47.20
2018-07-20T11:55:54.876Z,45.90
2018-07-20T11:58:29.840Z,45.00
2018-07-20T12:01:04.681Z,44.60
2018-07-20T12:03:39.438Z,45.90
2018-07-20T12:09:14.147Z,45.10
2018-07-20T12:11:49.050Z,44.30
2018-07-20T12:14:25.840Z,44.60
2018-07-20T12:17:00.603Z,43.90
2018-07-20T12:22:09.643Z,43.60
2018-07-20T12:24:44.415Z,45.30
2018-07-20T12:27:19.181Z,44.60
2018-07-20T12:29:53.944Z,43.80
2018-07-20T12:32:28.819Z,44.60
2018-07-20T12:35:03.588Z,43.20
2018-07-20T12:37:38.376Z,44.00
2018-07-20T12:43:34.894Z,44.70
2018-07-20T12:48:44.031Z,44.00
2018-07-20T12:51:18.797Z,44.30
2018-07-20T12:53:53.603Z,45.90
2018-07-20T12:56:28.320Z,44.50
2018-07-20T12:59:03.452Z,45.10
2018-07-20T13:01:38.384Z,45.10
2018-07-20T13:04:13.203Z,44.50
2018-07-20T13:06:48.066Z,45.10
2018-07-20T13:09:22.787Z,44.90
2018-07-20T13:11:58.545Z,45.50
2018-07-20T13:14:33.743Z,45.10
2018-07-20T13:17:08.466Z,46.20
2018-07-20T13:19:44.251Z,45.20
2018-07-20T13:22:18.988Z,45.60
2018-07-20T13:24:53.764Z,45.60
2018-07-20T13:27:29.684Z,45.40
2018-07-20T13:30:06.318Z,44.80
2018-07-20T13:32:41.050Z,45.90
2018-07-20T13:35:15.768Z,45.90
2018-07-20T13:37:50.629Z,46.30
2018-07-20T13:40:25.372Z,45.70
2018-07-20T13:43:00.140Z,45.90
2018-07-20T13:45:34.879Z,47.40
2018-07-20T13:48:09.675Z,45.70
2018-07-20T13:50:44.384Z,46.20
2018-07-20T13:53:19.136Z,46.30
2018-07-20T13:55:53.882Z,46.00
2018-07-20T13:58:28.679Z,47.00
2018-07-20T14:01:03.563Z,46.40
2018-07-20T14:03:38.307Z,46.90
2018-07-20T14:06:13.028Z,46.90
2018-07-20T14:08:47.774Z,46.50
2018-07-20T14:11:22.570Z,46.60
2018-07-20T14:13:57.296Z,47.10
2018-07-20T14:16:32.019Z,46.40
2018-07-20T14:19:06.988Z,47.00
2018-07-20T14:24:15.987Z,47.60
2018-07-20T14:26:51.081Z,48.00
2018-07-20T14:29:25.838Z,48.60
2018-07-20T14:32:01.635Z,47.40
2018-07-20T14:34:36.504Z,48.50
2018-07-20T14:37:11.251Z,46.80
2018-07-20T14:39:45.988Z,47.60
2018-07-20T14:42:20.731Z,47.60
2018-07-20T14:50:03.985Z,47.60
2018-07-20T14:52:38.783Z,46.90
2018-07-20T14:55:14.505Z,47.30
2018-07-20T14:57:49.292Z,47.20
2018-07-20T15:00:24.039Z,47.90
2018-07-20T15:02:59.779Z,48.60
2018-07-20T15:05:34.489Z,47.10
2018-07-20T15:08:09.244Z,47.60
2018-07-20T15:10:43.976Z,46.80
2018-07-20T15:13:19.700Z,47.40
2018-07-20T15:15:55.425Z,47.70
2018-07-20T15:18:30.125Z,48.40
2018-07-20T15:21:04.890Z,48.30
2018-07-20T15:23:39.575Z,47.70
2018-07-20T15:26:14.411Z,47.40
2018-07-20T15:28:50.153Z,47.40
2018-07-20T15:31:25.948Z,47.80
2018-07-20T15:34:00.661Z,47.60
2018-07-20T15:36:35.409Z,48.90
2018-07-20T15:41:46.458Z,49.90
2018-07-20T15:44:21.164Z,49.90
2018-07-20T15:46:57.157Z,49.80
2018-07-20T15:49:32.877Z,48.30
2018-07-20T15:54:43.511Z,49.80
2018-07-20T15:59:52.731Z,48.80
2018-07-20T16:05:01.867Z,49.70
2018-07-20T16:07:36.631Z,49.30
2018-07-20T16:12:45.614Z,49.40
2018-07-20T16:15:20.376Z,50.30
2018-07-20T16:17:55.091Z,49.70
2018-07-20T16:20:29.852Z,50.60
2018-07-20T16:25:38.856Z,50.70
2018-07-20T16:28:13.553Z,51.10
2018-07-20T16:30:48.338Z,51.50
2018-07-20T16:35:58.383Z,52.30
2018-07-20T16:38:33.239Z,52.30
2018-07-20T16:46:18.373Z,52.40
2018-07-20T16:48:53.543Z,52.60
2018-07-20T16:51:28.297Z,53.00
2018-07-20T16:59:13.334Z,55.60
2018-07-20T17:01:48.260Z,54.80
2018-07-20T17:04:24.107Z,54.50
2018-07-20T17:06:58.819Z,54.80
2018-07-20T17:09:33.585Z,54.90
2018-07-20T17:12:08.766Z,55.00
2018-07-20T17:17:17.783Z,55.80
2018-07-20T17:19:53.556Z,54.90
2018-07-20T17:25:02.492Z,56.30
2018-07-20T17:27:37.236Z,55.60
2018-07-20T17:30:11.968Z,56.80
2018-07-20T17:32:46.697Z,55.70
2018-07-20T17:35:21.507Z,56.20
2018-07-20T17:40:31.564Z,57.10
2018-07-20T17:43:07.525Z,57.10
2018-07-20T17:50:50.908Z,58.20
2018-07-20T17:53:26.670Z,58.00
2018-07-20T17:56:01.442Z,58.10
2018-07-20T17:58:36.169Z,58.00
2018-07-20T18:01:10.948Z,58.30
2018-07-20T18:03:45.690Z,57.80
2018-07-20T18:06:20.475Z,57.70
2018-07-20T18:08:55.257Z,57.30
2018-07-20T18:11:31.029Z,57.20
2018-07-20T18:14:07.315Z,57.50
2018-07-20T18:16:42.166Z,57.90
2018-07-20T18:19:17.135Z,59.00
2018-07-20T18:21:51.893Z,59.50
2018-07-20T18:24:26.649Z,60.00
2018-07-20T18:27:01.505Z,60.60
2018-07-20T18:29:37.379Z,60.50
2018-07-20T18:32:12.380Z,61.20
2018-07-20T18:34:48.169Z,61.70
2018-07-20T18:37:22.910Z,62.60
2018-07-20T18:42:31.862Z,63.30
2018-07-20T18:45:09.986Z,63.20
2018-07-20T18:47:44.742Z,63.10
2018-07-20T18:50:19.509Z,63.30
2018-07-20T18:52:55.262Z,63.00
2018-07-20T18:58:04.286Z,64.20
2018-07-20T19:00:38.968Z,64.50
2018-07-20T19:03:13.681Z,64.90
2018-07-20T19:05:48.377Z,65.40
2018-07-20T19:10:57.374Z,67.10
2018-07-20T19:13:33.323Z,68.30
2018-07-20T19:16:09.076Z,68.90
2018-07-20T19:18:44.837Z,70.00
2018-07-20T19:21:19.579Z,70.80
2018-07-20T19:23:54.436Z,71.90
2018-07-20T19:26:31.472Z,72.80
2018-07-20T19:29:06.204Z,74.00
2018-07-20T19:31:40.911Z,75.00
2018-07-20T19:34:15.745Z,75.70
2018-07-20T19:36:51.583Z,76.50
2018-07-20T19:39:26.328Z,77.90
2018-07-20T19:42:01.104Z,78.70
2018-07-20T19:47:10.084Z,80.60
2018-07-20T19:49:44.981Z,80.80
2018-07-20T19:52:20.014Z,81.60
2018-07-20T19:54:54.855Z,82.90
2018-07-20T19:57:29.572Z,84.40
2018-07-20T20:00:05.207Z,85.40
2018-07-20T20:02:40.970Z,86.30
2018-07-20T20:05:15.706Z,87.10
2018-07-20T20:07:50.458Z,87.40
2018-07-20T20:10:25.506Z,88.10
2018-07-20T20:13:00.270Z,88.90
2018-07-20T20:15:35.034Z,89.40
2018-07-20T20:18:10.960Z,90.10
2018-07-20T20:20:45.681Z,90.40
2018-07-20T20:25:54.638Z,90.70
2018-07-20T20:28:29.386Z,91.10
2018-07-20T20:31:04.202Z,91.50
2018-07-20T20:33:38.988Z,91.40
2018-07-20T20:36:13.702Z,91.70
2018-07-20T20:38:49.450Z,91.80
2018-07-20T20:41:24.139Z,92.20
2018-07-20T20:43:59.919Z,92.60
2018-07-20T20:46:37.292Z,92.50
2018-07-20T20:49:13.064Z,92.10
2018-07-20T20:51:47.797Z,91.90
2018-07-20T20:54:22.538Z,92.20
2018-07-20T20:59:32.588Z,93.20
2018-07-20T21:02:08.059Z,93.80
2018-07-20T21:04:42.811Z,94.40
2018-07-20T21:07:17.615Z,94.90
2018-07-20T21:09:52.340Z,95.30
2018-07-20T21:15:01.532Z,96.50
2018-07-20T21:17:37.282Z,97.20
2018-07-20T21:20:12.059Z,97.80
2018-07-20T21:25:21.053Z,99.30
2018-07-20T21:27:55.749Z,99.90
2018-07-20T21:30:30.476Z,99.90
2018-07-20T21:33:05.216Z,99.90
2018-07-20T21:35:39.913Z,99.90
2018-07-20T21:38:14.704Z,99.90
2018-07-20T21:40:50.419Z,99.90
2018-07-20T21:43:25.192Z,99.90
2018-07-20T21:48:34.171Z,99.90
2018-07-20T21:51:08.992Z,99.90
2018-07-20T21:53:43.700Z,99.90
2018-07-20T22:01:27.347Z,99.90
2018-07-20T22:04:02.031Z,99.90
2018-07-20T22:06:36.783Z,99.90
2018-07-20T22:09:12.347Z,99.90
2018-07-20T22:14:21.306Z,99.90
2018-07-20T22:16:57.092Z,99.90
2018-07-20T22:19:32.792Z,99.90
2018-07-20T22:22:07.564Z,99.90
2018-07-20T22:24:42.292Z,99.90
2018-07-20T22:27:18.090Z,99.90
2018-07-20T22:29:52.850Z,99.90
2018-07-20T22:32:27.771Z,99.90
2018-07-20T22:35:02.482Z,99.90
2018-07-20T22:40:12.487Z,99.90
2018-07-20T22:42:47.245Z,99.90
2018-07-20T22:45:21.964Z,99.90
2018-07-20T22:47:57.686Z,99.90
2018-07-20T22:50:33.415Z,99.90
2018-07-20T22:53:08.120Z,99.90
2018-07-20T22:58:17.187Z,99.90
2018-07-20T23:00:51.991Z,99.90
2018-07-20T23:03:27.783Z,99.90
2018-07-20T23:06:02.717Z,99.90
2018-07-20T23:08:37.411Z,99.90
2018-07-20T23:11:13.296Z,99.90
2018-07-20T23:13:47.969Z,99.90
2018-07-20T23:16:23.687Z,99.90
2018-07-20T23:18:58.429Z,99.90
2018-07-20T23:21:34.243Z,99.90
2018-07-20T23:24:09.225Z,99.90
2018-07-20T23:26:44.021Z,99.90
2018-07-20T23:29:18.728Z,99.90
2018-07-20T23:34:27.197Z,99.90
2018-07-20T23:37:01.972Z,99.90
2018-07-20T23:39:36.130Z,99.90
2018-07-20T23:42:10.896Z,99.90
2018-07-20T23:44:45.627Z,99.90
2018-07-20T23:47:19.846Z,99.90
2018-07-20T23:49:54.988Z,99.90
2018-07-20T23:52:29.228Z,99.90
2018-07-20T23:55:03.929Z,99.90
2018-07-20T23:57:38.130Z,99.90
